Time;durP1;ratioP1;P1;durP2;ratioP2;P2;SDS_P1;SDS_P2;PMS_P1;PMS_P2;Temp;Humidity;BMP_temperature;BMP_pressure;BME280_temperature;BME280_humidity;BME280_pressure;Samples;Min_cycle;Max_cycle;Signal;HPM_P1;HPM_P2
2022/05/19 00:02:00;;;;;;;23.40;15.57;;;15.50;99.90;;;;;;5005808;28;20049;-83
2022/05/19 00:04:27;;;;;;;23.98;16.08;;;15.50;99.90;;;;;;4982005;28;20050;-83
2022/05/19 00:06:53;;;;;;;22.23;15.05;;;15.60;99.90;;;;;;4979554;28;20058;-83
2022/05/19 00:09:19;;;;;;;22.48;15.48;;;15.50;99.90;;;;;;4997004;28;20042;-84
2022/05/19 00:11:46;;;;;;;21.65;15.90;;;15.60;99.90;;;;;;4963371;28;20046;-83
2022/05/19 00:14:12;;;;;;;21.50;15.88;;;15.60;99.90;;;;;;4996949;28;20049;-83
2022/05/19 00:16:39;;;;;;;22.88;16.45;;;15.60;99.90;;;;;;4979677;28;20137;-83
2022/05/19 00:19:05;;;;;;;23.20;14.93;;;15.60;99.90;;;;;;4996798;28;20050;-83
2022/05/19 00:21:30;;;;;;;21.60;15.40;;;15.50;99.90;;;;;;4996706;28;20046;-83
2022/05/19 00:23:56;;;;;;;28.40;15.88;;;15.60;99.90;;;;;;4979351;28;20054;-83
2022/05/19 00:26:22;;;;;;;27.05;16.42;;;15.60;99.90;;;;;;4979210;28;20072;-83
2022/05/19 00:28:47;;;;;;;24.25;16.02;;;15.60;99.90;;;;;;4979152;28;20050;-83
2022/05/19 00:31:14;;;;;;;23.00;15.57;;;15.60;99.90;;;;;;4979232;28;20038;-83
2022/05/19 00:33:40;;;;;;;21.80;15.70;;;15.60;99.90;;;;;;4996764;28;20042;-84
2022/05/19 00:36:08;;;;;;;21.27;15.98;;;15.60;99.90;;;;;;4979071;28;20125;-83
2022/05/19 00:38:33;;;;;;;23.15;15.98;;;15.60;99.90;;;;;;4979016;28;20516;-83
2022/05/19 00:40:59;;;;;;;26.67;16.85;;;15.60;99.90;;;;;;4996561;28;20035;-83
2022/05/19 00:43:31;;;;;;;24.60;16.60;;;15.60;99.90;;;;;;4996361;28;20375;-83
2022/05/19 00:46:19;;;;;;;22.20;15.23;;;15.60;99.90;;;;;;4978896;28;20039;-83
2022/05/19 00:48:54;;;;;;;24.33;16.45;;;15.60;99.90;;;;;;4995820;28;20066;-83
2022/05/19 00:51:27;;;;;;;28.50;16.70;;;15.50;99.90;;;;;;4996356;28;20053;-83
2022/05/19 00:53:57;;;;;;;24.75;16.85;;;15.60;99.90;;;;;;4996300;28;20093;-83
2022/05/19 00:56:22;;;;;;;24.10;16.58;;;15.60;99.90;;;;;;4975104;28;20059;-83
2022/05/19 00:59:11;;;;;;;23.98;16.10;;;15.60;99.90;;;;;;4975517;28;20058;-84
2022/05/19 01:01:39;;;;;;;26.83;16.38;;;15.60;99.90;;;;;;4976662;28;20059;-85
2022/05/19 01:04:29;;;;;;;24.27;16.35;;;15.60;99.90;;;;;;4959414;28;20047;-84
2022/05/19 01:06:59;;;;;;;24.50;16.98;;;15.60;99.90;;;;;;4976399;28;20047;-83
2022/05/19 01:09:25;;;;;;;24.73;17.08;;;15.60;99.90;;;;;;4975220;28;20059;-83
2022/05/19 01:11:55;;;;;;;29.90;17.05;;;15.60;99.90;;;;;;4976378;28;20046;-83
2022/05/19 01:14:22;;;;;;;29.63;18.40;;;15.60;99.90;;;;;;4975085;28;20517;-83
2022/05/19 01:16:48;;;;;;;29.48;19.15;;;15.60;99.90;;;;;;4976366;28;20047;-83
2022/05/19 01:19:29;;;;;;;26.17;18.70;;;15.70;99.90;;;;;;4976254;28;20046;-83
2022/05/19 01:22:01;;;;;;;27.00;17.30;;;15.60;99.90;;;;;;4974835;28;20046;-83
2022/05/19 01:24:34;;;;;;;25.38;17.45;;;15.60;99.90;;;;;;4975242;28;20054;-84
2022/05/19 01:27:01;;;;;;;28.13;18.25;;;15.60;99.90;;;;;;4958995;28;20042;-83
2022/05/19 01:29:28;;;;;;;25.10;18.23;;;15.50;99.90;;;;;;4976388;28;20483;-83
2022/05/19 01:32:01;;;;;;;31.60;20.15;;;15.50;99.90;;;;;;4974750;28;20117;-83
2022/05/19 01:34:30;;;;;;;30.70;19.25;;;15.50;99.90;;;;;;4974787;28;20043;-83
2022/05/19 01:36:56;;;;;;;28.13;19.05;;;15.50;99.90;;;;;;4958502;28;20055;-83
2022/05/19 01:39:26;;;;;;;31.80;20.30;;;15.50;99.90;;;;;;4974688;28;20050;-83
2022/05/19 01:42:06;;;;;;;31.20;19.63;;;15.50;99.90;;;;;;4974704;28;20515;-83
2022/05/19 01:44:53;;;;;;;29.33;19.23;;;15.50;99.90;;;;;;4958658;28;20051;-83
2022/05/19 01:47:37;;;;;;;28.67;19.95;;;15.40;99.90;;;;;;4974526;28;20050;-83
2022/05/19 01:50:26;;;;;;;28.80;19.63;;;15.40;99.90;;;;;;4974316;28;20133;-83
2022/05/19 01:53:04;;;;;;;30.67;20.45;;;15.50;99.90;;;;;;4975662;28;20085;-83
2022/05/19 01:56:01;;;;;;;29.08;18.65;;;15.40;99.90;;;;;;4974100;28;20105;-83
2022/05/19 01:58:39;;;;;;;34.75;20.10;;;15.40;99.90;;;;;;4975424;28;20545;-83
2022/05/19 02:01:07;;;;;;;27.48;19.25;;;15.40;99.90;;;;;;4976182;28;20082;-83
2022/05/19 02:03:37;;;;;;;31.75;19.92;;;15.40;99.90;;;;;;4977838;28;20049;-83
2022/05/19 02:06:08;;;;;;;32.90;20.42;;;15.20;99.90;;;;;;4974120;28;20430;-84
2022/05/19 02:09:08;;;;;;;31.52;19.75;;;15.50;99.90;;;;;;4976001;28;20394;-83
2022/05/19 02:11:40;;;;;;;31.20;19.73;;;15.40;99.90;;;;;;4918885;28;20060;-83
2022/05/19 02:14:09;;;;;;;31.17;19.65;;;15.50;99.90;;;;;;4950455;29;20071;-82
2022/05/19 02:16:36;;;;;;;29.67;19.38;;;15.40;99.90;;;;;;4953023;28;20459;-83
2022/05/19 02:19:02;;;;;;;30.55;20.35;;;15.40;99.90;;;;;;4936848;29;20110;-84
2022/05/19 02:21:28;;;;;;;29.58;20.42;;;15.40;99.90;;;;;;4919041;29;20466;-84
2022/05/19 02:24:01;;;;;;;35.65;21.20;;;15.40;99.90;;;;;;4934541;29;20043;-84
2022/05/19 02:26:31;;;;;;;29.88;19.50;;;15.50;99.90;;;;;;4934606;29;20048;-83
2022/05/19 02:29:02;;;;;;;34.63;20.50;;;15.50;99.90;;;;;;4919013;29;20063;-83
2022/05/19 02:31:28;;;;;;;28.27;20.23;;;15.50;99.90;;;;;;4918714;29;20495;-82
2022/05/19 02:33:53;;;;;;;29.98;20.23;;;15.50;99.90;;;;;;4918616;29;20054;-83
2022/05/19 02:36:19;;;;;;;29.70;20.42;;;15.60;99.90;;;;;;4934339;29;20044;-83
2022/05/19 02:38:45;;;;;;;30.40;20.88;;;15.60;99.90;;;;;;4918445;29;20060;-83
2022/05/19 02:41:10;;;;;;;35.45;20.70;;;15.60;99.90;;;;;;4934575;29;20055;-83
2022/05/19 02:43:36;;;;;;;31.92;21.52;;;15.70;99.90;;;;;;4918539;29;20044;-83
2022/05/19 02:46:01;;;;;;;32.95;21.73;;;15.70;99.90;;;;;;4918485;29;20050;-83
2022/05/19 02:48:28;;;;;;;32.67;21.85;;;15.60;99.90;;;;;;4963729;28;20055;-83
2022/05/19 02:50:53;;;;;;;33.08;21.35;;;15.60;99.90;;;;;;4973621;28;20042;-83
2022/05/19 02:53:20;;;;;;;33.15;23.02;;;15.70;99.90;;;;;;4974813;28;20376;-83
2022/05/19 02:55:46;;;;;;;35.15;22.20;;;15.70;99.90;;;;;;4973461;28;20050;-83
2022/05/19 02:58:14;;;;;;;33.95;22.38;;;15.60;99.90;;;;;;4957425;28;20129;-83
2022/05/19 03:00:42;;;;;;;34.08;22.13;;;15.60;99.90;;;;;;4974843;28;20051;-83
2022/05/19 03:03:07;;;;;;;31.77;21.38;;;15.70;99.90;;;;;;4973490;28;20085;-83
2022/05/19 03:05:34;;;;;;;33.85;22.52;;;15.60;99.90;;;;;;4974751;28;20082;-83
2022/05/19 03:08:00;;;;;;;36.05;23.55;;;15.60;99.90;;;;;;4973380;28;20042;-83
2022/05/19 03:10:26;;;;;;;33.03;22.33;;;15.50;99.90;;;;;;4973355;28;20563;-83
2022/05/19 03:12:55;;;;;;;36.17;23.70;;;15.60;99.90;;;;;;4974877;28;20065;-83
2022/05/19 03:15:21;;;;;;;38.80;24.15;;;15.50;99.90;;;;;;4973471;28;20039;-83
2022/05/19 03:17:47;;;;;;;36.58;23.70;;;15.50;99.90;;;;;;4974550;28;20101;-83
2022/05/19 03:20:16;;;;;;;36.55;23.55;;;15.50;99.90;;;;;;4977906;28;20395;-83
2022/05/19 03:22:42;;;;;;;37.35;23.00;;;15.50;99.90;;;;;;4978405;28;20074;-83
2022/05/19 03:25:08;;;;;;;35.67;23.17;;;15.60;99.90;;;;;;4978390;28;20078;-83
2022/05/19 03:27:35;;;;;;;33.33;23.85;;;15.60;99.90;;;;;;4977266;28;20105;-83
2022/05/19 03:30:02;;;;;;;36.58;24.90;;;15.60;99.90;;;;;;4977316;28;20062;-83
2022/05/19 03:32:28;;;;;;;37.60;23.92;;;15.60;99.90;;;;;;4961101;28;20508;-83
2022/05/19 03:34:53;;;;;;;36.08;23.48;;;15.60;99.90;;;;;;4977834;28;20194;-83
2022/05/19 03:37:19;;;;;;;38.08;24.73;;;15.60;99.90;;;;;;4976948;28;20047;-83
2022/05/19 03:39:44;;;;;;;36.60;24.63;;;15.70;99.90;;;;;;4977754;28;20414;-83
2022/05/19 03:42:10;;;;;;;35.45;23.38;;;15.70;99.90;;;;;;4978084;28;20046;-83
2022/05/19 03:44:37;;;;;;;34.75;23.38;;;15.70;99.90;;;;;;4977988;28;20061;-83
2022/05/19 03:47:03;;;;;;;35.00;23.42;;;15.80;99.90;;;;;;4977206;28;20070;-83
2022/05/19 03:49:30;;;;;;;35.65;23.77;;;15.80;99.90;;;;;;4976713;28;20047;-83
2022/05/19 03:51:55;;;;;;;38.63;23.70;;;15.80;99.90;;;;;;4976409;28;20047;-83
2022/05/19 03:54:21;;;;;;;37.20;24.00;;;15.80;99.90;;;;;;4976507;28;20043;-83
2022/05/19 03:56:47;;;;;;;38.63;24.55;;;15.80;99.90;;;;;;4996780;28;20066;-83
2022/05/19 03:59:12;;;;;;;33.70;23.40;;;15.80;99.90;;;;;;4979642;28;20046;-84
2022/05/19 04:01:39;;;;;;;38.67;24.58;;;15.80;99.90;;;;;;4963651;28;20053;-83
2022/05/19 04:04:06;;;;;;;37.38;24.88;;;15.80;99.90;;;;;;4979601;28;20057;-83
2022/05/19 04:06:31;;;;;;;37.50;24.92;;;15.80;99.90;;;;;;4979504;28;20050;-83
2022/05/19 04:08:57;;;;;;;40.38;25.80;;;15.90;99.90;;;;;;4979375;28;20366;-83
2022/05/19 04:11:23;;;;;;;40.25;27.63;;;15.90;99.90;;;;;;4996843;28;20078;-83
2022/05/19 04:13:49;;;;;;;39.10;25.67;;;15.90;99.90;;;;;;4963327;28;20046;-83
2022/05/19 04:16:14;;;;;;;45.40;26.30;;;16.00;99.90;;;;;;4979418;28;20053;-83
2022/05/19 04:18:40;;;;;;;40.20;26.50;;;15.90;99.90;;;;;;4979278;28;20050;-83
2022/05/19 04:21:06;;;;;;;42.88;27.83;;;16.10;99.90;;;;;;4979393;28;20058;-83
2022/05/19 04:23:32;;;;;;;46.63;28.80;;;16.10;99.90;;;;;;4996762;28;20049;-83
2022/05/19 04:25:57;;;;;;;42.03;28.90;;;16.10;99.90;;;;;;4996545;28;20049;-83
2022/05/19 04:28:23;;;;;;;46.05;30.23;;;16.20;99.90;;;;;;4979773;28;20050;-84
2022/05/19 04:30:49;;;;;;;43.00;29.48;;;16.10;99.90;;;;;;4996204;28;20169;-83
2022/05/19 04:33:14;;;;;;;43.22;29.75;;;16.10;99.90;;;;;;4997294;28;20149;-83
2022/05/19 04:35:40;;;;;;;45.30;29.17;;;16.30;99.90;;;;;;4999269;28;20042;-83
2022/05/19 04:38:11;;;;;;;44.95;29.30;;;16.20;99.90;;;;;;4997844;28;20413;-83
2022/05/19 04:40:40;;;;;;;45.75;29.17;;;16.40;99.90;;;;;;4982002;28;20058;-83
2022/05/19 04:43:07;;;;;;;40.03;28.80;;;16.50;99.90;;;;;;4978886;28;20046;-84
2022/05/19 04:45:33;;;;;;;44.33;29.05;;;16.50;99.90;;;;;;4978728;28;20513;-84
2022/05/19 04:47:59;;;;;;;42.15;29.08;;;16.60;99.90;;;;;;4978781;28;20482;-83
2022/05/19 04:50:25;;;;;;;39.63;27.48;;;16.60;99.90;;;;;;4996202;28;20053;-83
2022/05/19 04:52:50;;;;;;;40.75;28.10;;;16.60;99.90;;;;;;4996195;28;20046;-83
2022/05/19 04:55:16;;;;;;;40.60;27.77;;;16.70;99.90;;;;;;4978407;28;20083;-83
2022/05/19 04:57:43;;;;;;;44.17;27.88;;;16.80;99.90;;;;;;4996007;28;20055;-83
2022/05/19 05:00:13;;;;;;;40.35;27.17;;;16.80;99.90;;;;;;4978508;28;20549;-83
2022/05/19 05:02:39;;;;;;;42.05;27.77;;;16.90;99.90;;;;;;4995625;28;20050;-84
2022/05/19 05:05:06;;;;;;;36.67;27.38;;;16.90;99.90;;;;;;4978670;28;20501;-83
2022/05/19 05:07:32;;;;;;;37.53;26.50;;;16.90;99.90;;;;;;4978212;28;20058;-83
2022/05/19 05:09:58;;;;;;;39.88;26.70;;;17.00;99.90;;;;;;4978354;28;20363;-83
2022/05/19 05:12:23;;;;;;;37.35;26.02;;;17.00;99.90;;;;;;4978355;28;20089;-83
2022/05/19 05:14:49;;;;;;;41.95;26.20;;;17.10;99.90;;;;;;4995878;28;20046;-82
2022/05/19 05:17:15;;;;;;;38.38;24.92;;;17.20;99.90;;;;;;4978450;28;20050;-82
2022/05/19 05:19:41;;;;;;;36.38;24.25;;;17.20;99.90;;;;;;4980505;28;20050;-83
2022/05/19 05:22:07;;;;;;;33.72;23.33;;;17.20;99.90;;;;;;4995655;28;20153;-83
2022/05/19 05:24:33;;;;;;;32.85;22.35;;;17.20;99.90;;;;;;4995456;28;20046;-83
2022/05/19 05:26:58;;;;;;;31.80;21.17;;;17.30;99.90;;;;;;4995643;28;20046;-83
2022/05/19 05:29:24;;;;;;;32.83;20.27;;;17.20;99.90;;;;;;4961943;28;20047;-84
2022/05/19 05:31:50;;;;;;;29.70;18.92;;;17.20;99.90;;;;;;4961845;28;20125;-84
2022/05/19 05:34:16;;;;;;;28.05;16.55;;;17.20;99.90;;;;;;4978210;28;20047;-83
2022/05/19 05:36:42;;;;;;;22.85;11.82;;;17.20;99.90;;;;;;4995275;28;20117;-83
2022/05/19 05:39:07;;;;;;;15.98;8.00;;;17.30;99.90;;;;;;4977812;28;20073;-83
2022/05/19 05:41:33;;;;;;;14.60;7.28;;;17.30;99.90;;;;;;4977285;28;20057;-83
2022/05/19 05:43:58;;;;;;;13.73;6.97;;;17.20;99.90;;;;;;4961642;28;20057;-82
2022/05/19 05:46:24;;;;;;;11.80;7.25;;;17.20;99.90;;;;;;4977947;28;20057;-87
2022/05/19 05:48:51;;;;;;;14.77;7.57;;;17.20;99.90;;;;;;4978095;28;20046;-84
2022/05/19 05:51:17;;;;;;;13.43;6.13;;;17.20;99.90;;;;;;4977957;28;20050;-84
2022/05/19 05:53:44;;;;;;;12.13;5.53;;;17.10;99.90;;;;;;4961691;28;20485;-84
2022/05/19 05:56:14;;;;;;;12.90;5.82;;;17.10;99.90;;;;;;4994586;28;20108;-83
2022/05/19 05:58:40;;;;;;;10.25;5.30;;;17.00;99.90;;;;;;4994787;28;20050;-84
2022/05/19 06:01:09;;;;;;;10.00;4.90;;;17.00;99.90;;;;;;4977301;28;20097;-83
2022/05/19 06:03:35;;;;;;;12.30;5.88;;;16.90;99.90;;;;;;4977497;28;20047;-84
2022/05/19 06:06:02;;;;;;;11.80;6.47;;;16.90;99.90;;;;;;4961036;28;20046;-84
2022/05/19 06:08:28;;;;;;;16.52;7.82;;;16.90;99.90;;;;;;4976856;28;20061;-84
2022/05/19 06:10:54;;;;;;;12.95;7.80;;;16.80;99.90;;;;;;4994537;28;20517;-84
2022/05/19 06:13:21;;;;;;;20.73;12.20;;;16.90;99.90;;;;;;4977175;28;20138;-84
2022/05/19 06:15:47;;;;;;;27.50;14.82;;;16.90;99.90;;;;;;4976997;28;20050;-84
2022/05/19 06:18:13;;;;;;;28.75;15.98;;;16.90;99.90;;;;;;4976934;28;20359;-84
2022/05/19 06:20:39;;;;;;;27.73;14.95;;;16.90;99.90;;;;;;4977442;28;20065;-85
2022/05/19 06:23:07;;;;;;;24.63;15.10;;;16.90;99.90;;;;;;4977158;28;20449;-85
2022/05/19 06:25:34;;;;;;;25.70;14.07;;;17.00;99.90;;;;;;4976884;28;20050;-85
2022/05/19 06:28:00;;;;;;;25.85;14.02;;;17.00;99.90;;;;;;4976973;28;20050;-85
2022/05/19 06:30:27;;;;;;;17.27;9.70;;;17.10;99.90;;;;;;4977033;28;20077;-85
2022/05/19 06:32:53;;;;;;;20.33;10.95;;;17.10;99.90;;;;;;4960945;28;20057;-85
2022/05/19 06:35:27;;;;;;;19.70;9.63;;;17.20;99.90;;;;;;4994450;28;20057;-87
2022/05/19 06:37:53;;;;;;;17.45;7.38;;;17.20;99.90;;;;;;4976669;28;20129;-86
2022/05/19 06:40:20;;;;;;;12.75;6.93;;;17.30;99.90;;;;;;4979040;28;20100;-85
2022/05/19 06:42:46;;;;;;;14.70;7.35;;;17.30;99.90;;;;;;4981805;28;20050;-85
2022/05/19 06:45:18;;;;;;;15.95;8.15;;;17.40;99.90;;;;;;4980863;28;20134;-85
2022/05/19 06:47:44;;;;;;;13.05;6.50;;;17.50;99.90;;;;;;4980205;28;20039;-86
2022/05/19 06:50:11;;;;;;;12.80;7.70;;;17.50;99.90;;;;;;4994890;28;20046;-85
2022/05/19 06:52:45;;;;;;;11.20;6.65;;;17.60;99.90;;;;;;4977789;28;20045;-87
2022/05/19 06:55:12;;;;;;;20.45;8.52;;;17.60;99.90;;;;;;4998153;28;20125;-85
2022/05/19 06:57:38;;;;;;;15.07;8.82;;;17.70;99.90;;;;;;4981034;28;20125;-86
2022/05/19 07:00:06;;;;;;;13.15;8.48;;;17.70;99.90;;;;;;4964960;28;20054;-86
2022/05/19 07:02:32;;;;;;;14.30;8.75;;;17.70;99.90;;;;;;4980918;28;20043;-85
2022/05/19 07:04:57;;;;;;;18.08;8.93;;;17.80;99.90;;;;;;4980686;28;20042;-86
2022/05/19 07:07:26;;;;;;;13.20;8.15;;;17.80;99.90;;;;;;4964644;28;20085;-86
2022/05/19 07:09:52;;;;;;;18.40;9.07;;;17.90;99.90;;;;;;4964764;28;20038;-85
2022/05/19 07:12:23;;;;;;;16.00;8.88;;;18.00;99.90;;;;;;4980575;28;20047;-86
2022/05/19 07:14:50;;;;;;;13.88;8.48;;;18.00;99.90;;;;;;4980687;28;20486;-87
2022/05/19 07:17:17;;;;;;;14.52;8.50;;;18.10;99.90;;;;;;4964484;28;20054;-87
2022/05/19 07:22:37;;;;;;;14.40;8.32;;;18.20;99.90;;;;;;4941134;29;20074;-87
2022/05/19 07:25:06;;;;;;;14.68;8.57;;;18.30;99.90;;;;;;4957065;29;20066;-87
2022/05/19 07:27:33;;;;;;;15.57;8.93;;;18.40;99.90;;;;;;4940843;29;20051;-87
2022/05/19 07:30:00;;;;;;;13.15;8.55;;;18.50;99.90;;;;;;4956924;29;20051;-87
2022/05/19 07:32:27;;;;;;;16.90;9.40;;;18.50;99.90;;;;;;4925138;29;20510;-87
2022/05/19 07:34:56;;;;;;;16.73;9.55;;;18.60;99.90;;;;;;4956784;29;20087;-87
2022/05/19 07:37:27;;;;;;;12.77;8.15;;;18.60;99.90;;;;;;4956915;29;20431;-87
2022/05/19 07:39:53;;;;;;;12.88;9.20;;;18.70;99.90;;;;;;4956547;29;20521;-88
2022/05/19 07:42:20;;;;;;;13.48;9.23;;;18.70;99.90;;;;;;4956750;29;20118;-87
2022/05/19 07:44:46;;;;;;;13.73;8.77;;;18.80;99.90;;;;;;4924715;29;20090;-87
2022/05/19 07:47:14;;;;;;;13.73;9.35;;;18.80;99.90;;;;;;4940641;29;20098;-87
2022/05/19 07:49:40;;;;;;;16.77;9.40;;;18.80;99.90;;;;;;4956680;29;20114;-87
2022/05/19 07:52:12;;;;;;;12.75;8.82;;;18.80;99.90;;;;;;4940270;29;20106;-87
2022/05/19 07:54:38;;;;;;;12.55;8.50;;;18.80;99.90;;;;;;4940432;29;20505;-87
2022/05/19 07:57:04;;;;;;;13.98;9.73;;;18.80;99.90;;;;;;4924488;29;20141;-86
2022/05/19 07:59:31;;;;;;;15.57;9.60;;;18.80;99.90;;;;;;4943979;28;20073;-87
2022/05/19 08:01:57;;;;;;;14.63;9.15;;;18.70;99.90;;;;;;4963419;28;20038;-87
2022/05/19 08:04:25;;;;;;;14.50;9.88;;;18.80;99.90;;;;;;4978997;28;20050;-86
2022/05/19 08:06:52;;;;;;;13.40;9.48;;;18.90;99.90;;;;;;4979445;28;20042;-86
2022/05/19 08:12:04;;;;;;;14.43;9.40;;;19.00;99.90;;;;;;4979532;28;20073;-86
2022/05/19 08:17:18;;;;;;;15.35;10.73;;;19.20;99.90;;;;;;4979295;28;20057;-86
2022/05/19 08:19:45;;;;;;;17.63;11.35;;;19.20;99.90;;;;;;4963195;28;20129;-85
2022/05/19 08:22:16;;;;;;;17.95;12.10;;;19.30;99.90;;;;;;4963213;28;20497;-86
2022/05/19 08:24:46;;;;;;;17.65;12.85;;;19.40;99.90;;;;;;4979222;28;20508;-86
2022/05/19 08:27:12;;;;;;;16.83;12.35;;;19.50;99.90;;;;;;4978962;28;20049;-86
2022/05/19 08:29:38;;;;;;;16.05;12.35;;;19.60;99.90;;;;;;4979028;28;20125;-85
2022/05/19 08:32:04;;;;;;;19.35;13.30;;;19.60;99.90;;;;;;4963296;28;20043;-86
2022/05/19 08:34:30;;;;;;;19.95;14.02;;;19.60;99.90;;;;;;4979234;28;20078;-85
2022/05/19 08:36:56;;;;;;;20.42;12.85;;;19.70;99.90;;;;;;4979113;28;20497;-85
2022/05/19 08:39:22;;;;;;;16.40;12.75;;;19.70;99.90;;;;;;4979044;28;20410;-85
2022/05/19 08:41:48;;;;;;;17.90;12.77;;;;;;;;;;4996318;28;20046;-84
2022/05/19 08:44:18;;;;;;;17.75;12.27;;;;;;;;;;4978885;28;20050;-84
2022/05/19 08:46:46;;;;;;;20.92;12.85;;;;;;;;;;4996257;28;20174;-84
2022/05/19 08:49:14;;;;;;;16.27;12.48;;;;;;;;;;4978824;28;20050;-84
2022/05/19 08:51:43;;;;;;;15.45;12.27;;;;;;;;;;4996307;28;20046;-84
2022/05/19 08:54:13;;;;;;;17.98;12.25;;;;;;;;;;4978540;28;20054;-84
2022/05/19 08:56:41;;;;;;;14.05;10.57;;;;;;;;;;4978474;28;20410;-85
2022/05/19 08:59:22;;;;;;;13.18;10.90;;;;;;;;;;4978558;28;20058;-84
2022/05/19 09:02:15;;;;;;;15.73;11.23;;;;;;;;;;4978832;28;20493;-83
2022/05/19 09:05:00;;;;;;;15.55;10.50;;;;;;;;;;4975645;28;20065;-84
2022/05/19 09:07:58;;;;;;;17.10;10.30;;;;;;;;;;4978388;28;20046;-85
2022/05/19 09:10:33;;;;;;;14.93;10.35;;;;;;;;;;4958651;28;20049;-84
2022/05/19 09:13:09;;;;;;;14.10;10.32;;;;;;;;;;4978448;28;20386;-84
2022/05/19 09:15:36;;;;;;;14.65;9.68;;;;;;;;;;4978233;28;20058;-83
2022/05/19 09:18:02;;;;;;;13.35;10.27;;;;;;;;;;4996012;28;20078;-83
2022/05/19 09:20:42;;;;;;;14.82;10.40;;;;;;;;;;4995944;28;20048;-83
2022/05/19 09:23:08;;;;;;;15.85;11.50;;;;;;;;;;4978065;28;20062;-84
2022/05/19 09:25:37;;;;;;;15.48;10.77;;;;;;;;;;4962119;28;20061;-84
2022/05/19 09:28:04;;;;;;;14.88;10.77;;;;;;;;;;4978019;28;20054;-84
2022/05/19 09:30:38;;;;;;;12.82;9.68;;;;;;;;;;4977934;28;20046;-84
2022/05/19 09:33:09;;;;;;;16.20;10.77;;;;;;;;;;4977966;28;20054;-83
2022/05/19 09:35:39;;;;;;;13.15;10.48;;;;;;;;;;4977964;28;20377;-84
2022/05/19 09:38:13;;;;;;;13.68;10.23;;;;;;;;;;4977657;28;20050;-84
2022/05/19 09:40:40;;;;;;;17.13;11.23;;;;;;;;;;4977718;28;20057;-84
2022/05/19 09:43:32;;;;;;;16.17;11.57;;;;;;;;;;4978246;28;20050;-86
2022/05/19 09:46:04;;;;;;;15.07;11.80;;;;;;;;;;4935521;29;20083;-84
2022/05/19 09:48:35;;;;;;;15.57;12.18;;;;;;;;;;4935324;29;20095;-84
2022/05/19 09:51:03;;;;;;;14.98;11.20;;;;;;;;;;4919595;29;20054;-84
2022/05/19 09:53:36;;;;;;;12.82;10.13;;;;;;;;;;4919114;29;20056;-84
2022/05/19 09:56:08;;;;;;;13.85;10.32;;;;;;;;;;4918928;29;20458;-86
2022/05/19 09:58:37;;;;;;;11.65;9.02;;;;;;;;;;4919337;29;20578;-84
2022/05/19 10:01:05;;;;;;;16.65;8.98;;;;;;;;;;4919245;29;20055;-86
2022/05/19 10:03:38;;;;;;;11.95;8.85;;;;;;;;;;4919278;29;20519;-85
2022/05/19 10:06:08;;;;;;;14.05;8.90;;;;;;;;;;4934852;29;20052;-84
2022/05/19 10:08:39;;;;;;;12.38;8.52;;;;;;;;;;4918901;29;20474;-85
2022/05/19 10:11:14;;;;;;;10.10;8.07;;;;;;;;;;4919086;29;20063;-85
2022/05/19 10:13:40;;;;;;;;;;;;;;;;;;4935467;29;20094;-84
2022/05/19 10:16:41;;;;;;;10.02;8.02;;;;;;;;;;4935363;29;19927;-85
2022/05/19 10:19:16;;;;;;;11.25;7.80;;;;;;;;;;4881355;29;20576;-88
2022/05/19 10:22:21;;;;;;;10.50;7.50;;;;;;;;;;4896941;29;20068;-86
2022/05/19 10:25:05;;;;;;;7.15;6.15;;;;;;;;;;4896787;29;20044;-85
2022/05/19 10:31:06;;;;;;;8.68;5.82;;;;;;;;;;4880818;29;20560;-86
2022/05/19 10:33:51;;;;;;;7.65;5.20;;;;;;;;;;4912095;28;20068;-85
2022/05/19 10:36:41;;;;;;;7.13;4.90;;;;;;;;;;4912519;29;20151;-86
2022/05/19 10:39:16;;;;;;;6.18;4.18;;;;;;;;;;4896472;29;20059;-86
2022/05/19 10:41:42;;;;;;;;;;;;;;;;;;4897083;29;20213;-86
2022/05/19 10:44:20;;;;;;;5.57;4.15;;;;;;;;;;4896649;29;20423;-86
2022/05/19 10:46:46;;;;;;;6.35;3.70;;;;;;;;;;4912527;29;20568;-85
2022/05/19 10:49:21;;;;;;;6.63;3.78;;;;;;;;;;4896501;29;20140;-86
2022/05/19 10:52:20;;;;;;;6.13;3.75;;;;;;;;;;4896433;29;20052;-83
2022/05/19 10:54:46;;;;;;;4.95;3.80;;;;;;;;;;4936050;28;20154;-84
2022/05/19 10:57:34;;;;;;;4.70;3.35;;;;;;;;;;4940415;28;20062;-84
2022/05/19 11:00:18;;;;;;;6.15;3.25;;;;;;;;;;4972536;28;20051;-84
2022/05/19 11:02:45;;;;;;;6.97;3.43;;;;;;;;;;4956765;28;20054;-85
2022/05/19 11:05:23;;;;;;;5.15;3.72;;;;;;;;;;4956676;28;20102;-84
2022/05/19 11:08:07;;;;;;;4.40;2.83;;;;;;;;;;4986958;28;20054;-84
2022/05/19 11:10:42;;;;;;;5.57;2.67;;;;;;;;;;4976881;28;20054;-84
2022/05/19 11:13:21;;;;;;;4.68;3.10;;;;;;;;;;4993928;28;20046;-85
2022/05/19 11:15:54;;;;;;;6.30;3.78;;;;;;;;;;4976570;28;20054;-85
2022/05/19 11:18:25;;;;;;;8.25;4.15;;;;;;;;;;4976483;28;20113;-85
2022/05/19 11:20:54;;;;;;;5.43;4.53;;;;;;;;;;4976673;28;20054;-85
2022/05/19 11:23:39;;;;;;;6.15;4.28;;;;;;;;;;4976532;28;20394;-85
2022/05/19 11:26:26;;;;;;;6.72;4.50;;;;;;;;;;4976443;28;20564;-86
2022/05/19 11:29:11;;;;;;;10.40;4.28;;;;;;;;;;4976673;28;20076;-85
2022/05/19 11:31:42;;;;;;;6.95;3.97;;;;;;;;;;4976309;28;20097;-85
2022/05/19 11:34:14;;;;;;;6.75;4.55;;;;;;;;;;4994148;28;20058;-85
2022/05/19 11:37:02;;;;;;;6.63;3.90;;;;;;;;;;4976491;28;20065;-84
2022/05/19 11:39:31;;;;;;;6.78;3.88;;;;;;;;;;4937513;29;20471;-85
2022/05/19 11:41:59;;;;;;;4.72;2.88;;;;;;;;;;4944533;29;20151;-85
2022/05/19 11:44:31;;;;;;;4.82;2.95;;;;;;;;;;4943591;29;20573;-85
2022/05/19 11:47:02;;;;;;;6.13;3.40;;;;;;;;;;4940468;29;20075;-85
2022/05/19 11:55:18;;;;;;;5.30;3.72;;;;;;;;;;4940124;29;20044;-85
2022/05/19 11:58:04;;;;;;;6.13;3.50;;;;;;;;;;4940276;29;20514;-84
2022/05/19 12:00:30;;;;;;;4.97;3.72;;;;;;;;;;4940664;29;20138;-85
2022/05/19 12:03:09;;;;;;;5.95;3.92;;;;;;;;;;4956013;28;20086;-84
2022/05/19 12:05:43;;;;;;;5.78;4.00;;;;;;;;;;4956121;29;20565;-84
2022/05/19 12:08:15;;;;;;;5.15;3.70;;;;;;;;;;4941135;29;20050;-85
2022/05/19 12:10:43;;;;;;;7.10;3.30;;;;;;;;;;4956342;29;20051;-84
2022/05/19 12:13:11;;;;;;;5.45;3.60;;;;;;;;;;4956820;29;20043;-84
2022/05/19 12:15:39;;;;;;;4.43;3.15;;;;;;;;;;4945308;28;20090;-84
2022/05/19 12:18:28;;;;;;;5.10;2.70;;;;;;;;;;4979250;28;20544;-84
2022/05/19 12:21:03;;;;;;;5.15;3.90;;;;;;;;;;4996279;28;20049;-84
2022/05/19 12:23:34;;;;;;;7.72;4.50;;;;;;;;;;4997087;28;20038;-85
2022/05/19 12:26:12;;;;;;;7.68;4.90;;;;;;;;;;4979288;28;20089;-84
2022/05/19 12:29:13;;;;;;;9.60;4.80;;;;;;;;;;4979297;28;20043;-84
2022/05/19 12:32:04;;;;;;;6.78;4.82;;;;;;;;;;4962954;28;20494;-84
2022/05/19 12:34:37;;;;;;;10.57;5.10;;;20.30;99.90;;;;;;4996584;28;20054;-84
2022/05/19 12:37:15;;;;;;;7.10;5.15;;;20.20;99.90;;;;;;4979242;28;20057;-84
2022/05/19 12:39:49;;;;;;;9.05;5.00;;;20.00;99.90;;;;;;4996418;28;20053;-84
2022/05/19 12:42:32;;;;;;;8.63;4.78;;;19.70;99.90;;;;;;4980011;28;20066;-84
2022/05/19 12:44:59;;;;;;;10.43;5.95;;;19.50;99.90;;;;;;4996485;28;20074;-84
2022/05/19 12:47:32;;;;;;;11.40;6.90;;;19.40;99.90;;;;;;4978788;28;20042;-84
2022/05/19 12:50:01;;;;;;;13.70;8.13;;;19.30;99.90;;;;;;4996276;28;20394;-84
2022/05/19 12:53:05;;;;;;;14.90;9.27;;;19.20;99.90;;;;;;4962502;28;20082;-85
2022/05/19 12:55:41;;;;;;;17.45;10.05;;;19.00;99.90;;;;;;4978530;28;20061;-84
2022/05/19 12:58:38;;;;;;;18.52;10.55;;;18.90;99.90;;;;;;4978650;28;20501;-85
2022/05/19 13:01:26;;;;;;;15.15;10.07;;;18.80;99.90;;;;;;4978675;28;20055;-85
2022/05/19 13:04:13;;;;;;;17.27;11.05;;;18.70;99.90;;;;;;4995992;28;20390;-87
2022/05/19 13:06:46;;;;;;;18.02;10.38;;;18.50;99.90;;;;;;4978348;28;20042;-87
2022/05/19 13:09:17;;;;;;;20.77;10.15;;;18.40;99.90;;;;;;4978499;28;20043;-87
2022/05/19 13:11:50;;;;;;;19.23;8.77;;;18.40;99.90;;;;;;4962387;28;20081;-87
2022/05/19 13:14:18;;;;;;;13.95;6.13;;;18.30;99.90;;;;;;4978566;28;20129;-86
2022/05/19 13:16:51;;;;;;;12.85;6.57;;;18.20;99.90;;;;;;4978367;28;20050;-85
2022/05/19 13:19:21;;;;;;;16.67;6.85;;;18.00;99.90;;;;;;4985480;23;20226;-86
2022/05/19 13:21:52;;;;;;;12.00;6.57;;;18.00;99.90;;;;;;4978200;28;20108;-88
2022/05/19 13:24:19;;;;;;;16.45;7.10;;;17.80;99.90;;;;;;4978142;28;20047;-86
2022/05/19 13:26:46;;;;;;;18.70;7.78;;;17.70;99.90;;;;;;4977975;28;20092;-85
2022/05/19 13:32:07;;;;;;;18.88;8.38;;;17.50;99.90;;;;;;4977728;28;20117;-85
2022/05/19 13:35:19;;;;;;;19.17;9.23;;;17.50;99.90;;;;;;4977878;28;20512;-85
2022/05/19 13:37:47;;;;;;;21.42;9.98;;;17.60;99.90;;;;;;4977322;28;20140;-86
2022/05/19 13:40:28;;;;;;;22.25;10.18;;;17.60;99.90;;;;;;4961395;28;20076;-87